Time;durP1;ratioP1;P1;durP2;ratioP2;P2;SDS_P1;SDS_P2;PMS_P1;PMS_P2;Temp;Humidity;BMP_temperature;BMP_pressure;BME280_temperature;BME280_humidity;BME280_pressure;Samples;Min_cycle;Max_cycle;Signal;HPM_P1;HPM_P2
2023/06/01 00:02:59;;;;;;;9.82;3.03;;;14.60;99.90;;;;;;7330934;32;20184;-55
2023/06/01 00:07:01;;;;;;;9.80;3.00;;;14.70;99.90;;;;;;7328066;32;20115;-56
2023/06/01 00:11:03;;;;;;;8.05;3.33;;;14.70;99.90;;;;;;7327668;32;20126;-55
2023/06/01 00:15:05;;;;;;;7.37;3.00;;;14.70;99.90;;;;;;7321750;32;20118;-56
2023/06/01 00:19:07;;;;;;;6.37;2.78;;;14.70;99.90;;;;;;7328493;32;20661;-55
2023/06/01 00:23:10;;;;;;;7.53;2.80;;;14.60;99.90;;;;;;7332115;32;20107;-55
2023/06/01 00:27:11;;;;;;;6.72;2.97;;;14.50;99.90;;;;;;7324557;32;21834;-55
2023/06/01 00:31:13;;;;;;;3.95;2.58;;;14.40;99.90;;;;;;7307053;32;20150;-56
2023/06/01 00:35:15;;;;;;;6.90;2.92;;;14.30;99.90;;;;;;7307548;32;20103;-55
2023/06/01 00:39:17;;;;;;;7.45;3.40;;;14.20;99.90;;;;;;7323289;32;20513;-55
2023/06/01 00:43:19;;;;;;;7.65;3.08;;;14.20;99.90;;;;;;7322559;32;20103;-54
2023/06/01 00:47:21;;;;;;;7.22;3.40;;;14.10;99.90;;;;;;7319768;32;20115;-56
2023/06/01 00:51:23;;;;;;;13.07;4.45;;;14.00;99.90;;;;;;7325409;32;20202;-55
2023/06/01 00:55:26;;;;;;;8.05;3.75;;;14.00;99.90;;;;;;7310049;32;20151;-56
2023/06/01 00:59:28;;;;;;;9.18;3.65;;;13.90;99.90;;;;;;7312635;32;20361;-55
2023/06/01 01:03:31;;;;;;;7.62;3.45;;;13.90;99.90;;;;;;7321222;32;20134;-55
2023/06/01 01:07:52;;;;;;;8.20;4.07;;;13.90;99.90;;;;;;7321705;32;20126;-54
2023/06/01 01:12:06;;;;;;;8.95;4.05;;;13.90;99.90;;;;;;7330400;32;20107;-56
2023/06/01 01:16:24;;;;;;;9.18;4.43;;;13.80;99.90;;;;;;7312891;32;20213;-55
2023/06/01 01:20:29;;;;;;;12.25;5.35;;;13.70;99.90;;;;;;7320565;32;20140;-56
2023/06/01 01:24:48;;;;;;;7.35;4.47;;;13.80;99.90;;;;;;7325572;32;20581;-55
2023/06/01 01:28:58;;;;;;;10.23;5.30;;;13.60;99.90;;;;;;7323930;32;20168;-54
2023/06/01 01:33:01;;;;;;;11.68;4.87;;;13.60;99.90;;;;;;7329708;32;20129;-55
2023/06/01 01:37:03;;;;;;;8.32;4.57;;;13.60;99.90;;;;;;7330233;32;20096;-56
2023/06/01 01:41:05;;;;;;;10.13;5.35;;;13.50;99.90;;;;;;7327253;32;20667;-54
2023/06/01 01:45:08;;;;;;;8.95;5.18;;;13.40;99.90;;;;;;7324424;32;20103;-55
2023/06/01 01:49:20;;;;;;;7.57;4.93;;;13.30;99.90;;;;;;7306394;32;20131;-54
2023/06/01 01:53:25;;;;;;;9.13;4.68;;;13.20;99.90;;;;;;7324591;32;20118;-54
2023/06/01 01:57:30;;;;;;;12.25;5.35;;;13.20;99.90;;;;;;7319085;32;20215;-55
2023/06/01 02:01:33;;;;;;;8.93;4.95;;;13.20;99.90;;;;;;7325687;32;20273;-54
2023/06/01 02:05:36;;;;;;;9.05;5.55;;;13.10;99.90;;;;;;7333900;32;20893;-55
2023/06/01 02:09:40;;;;;;;14.38;6.10;;;13.10;99.90;;;;;;7336854;32;20214;-54
2023/06/01 02:13:42;;;;;;;9.40;5.70;;;12.80;99.90;;;;;;7315875;32;20148;-55
2023/06/01 02:17:43;;;;;;;11.40;6.68;;;12.70;99.90;;;;;;7337242;32;20118;-55
2023/06/01 02:21:48;;;;;;;13.02;6.78;;;12.60;99.90;;;;;;7330367;32;20175;-55
2023/06/01 02:25:51;;;;;;;14.23;7.18;;;12.50;99.90;;;;;;7333017;32;20173;-55
2023/06/01 02:29:53;;;;;;;9.95;6.20;;;12.50;99.90;;;;;;7328003;32;20111;-55
2023/06/01 02:33:55;;;;;;;12.63;7.10;;;12.50;99.90;;;;;;7333014;32;20137;-55
2023/06/01 02:37:57;;;;;;;10.20;6.70;;;12.40;99.90;;;;;;7324678;32;20162;-55
2023/06/01 02:41:58;;;;;;;13.38;7.30;;;12.30;99.90;;;;;;7322058;32;20843;-55
2023/06/01 02:46:00;;;;;;;17.10;8.60;;;12.30;99.90;;;;;;7327704;32;20115;-54
2023/06/01 02:50:04;;;;;;;14.98;7.95;;;12.20;99.90;;;;;;7325876;32;20251;-55
2023/06/01 02:54:06;;;;;;;14.52;8.70;;;12.10;99.90;;;;;;7327185;32;20119;-56
2023/06/01 02:58:14;;;;;;;12.75;8.85;;;12.00;99.90;;;;;;7330105;32;20246;-56
2023/06/01 03:02:16;;;;;;;15.85;9.38;;;12.00;99.90;;;;;;7333674;32;22187;-56
2023/06/01 03:06:21;;;;;;;16.62;9.55;;;12.10;99.90;;;;;;7312374;32;20167;-55
2023/06/01 03:10:23;;;;;;;17.30;9.43;;;12.00;99.90;;;;;;7331504;32;20170;-55
2023/06/01 03:14:25;;;;;;;17.98;10.07;;;12.00;99.90;;;;;;7325071;32;20543;-56
2023/06/01 03:18:27;;;;;;;17.33;10.60;;;11.90;99.90;;;;;;7323883;32;20435;-54
2023/06/01 03:22:28;;;;;;;18.52;11.00;;;11.90;99.90;;;;;;7309497;32;20248;-55
2023/06/01 03:26:30;;;;;;;22.58;11.48;;;11.80;99.90;;;;;;7322408;32;20150;-55
2023/06/01 03:30:32;;;;;;;22.75;11.57;;;11.70;99.90;;;;;;7327239;32;20205;-55
2023/06/01 03:34:36;;;;;;;17.65;12.13;;;11.60;99.90;;;;;;7332279;32;20150;-55
2023/06/01 03:38:38;;;;;;;16.92;11.63;;;11.50;99.90;;;;;;7311310;32;20206;-55
2023/06/01 03:42:44;;;;;;;20.73;12.63;;;11.50;99.90;;;;;;7330334;32;20134;-54
2023/06/01 03:46:46;;;;;;;26.35;13.60;;;11.40;99.90;;;;;;7342611;32;20143;-56
2023/06/01 03:50:48;;;;;;;23.02;13.48;;;11.50;99.90;;;;;;7330798;32;20232;-55
2023/06/01 03:54:50;;;;;;;23.45;14.23;;;11.50;99.90;;;;;;7331754;32;20142;-55
2023/06/01 03:58:52;;;;;;;25.62;14.40;;;11.60;99.90;;;;;;7332869;32;20206;-55
2023/06/01 04:02:55;;;;;;;28.73;14.90;;;11.50;99.90;;;;;;7312472;32;20231;-54
2023/06/01 04:07:00;;;;;;;24.20;15.13;;;11.50;99.90;;;;;;7327313;32;20290;-55
2023/06/01 04:11:03;;;;;;;25.08;15.20;;;11.70;99.90;;;;;;7325276;32;20126;-54
2023/06/01 04:15:06;;;;;;;26.50;15.45;;;11.70;99.90;;;;;;7319568;32;20607;-55
2023/06/01 04:19:07;;;;;;;29.20;15.68;;;11.70;99.90;;;;;;7327144;32;20136;-55
2023/06/01 04:23:09;;;;;;;30.60;16.60;;;11.70;99.90;;;;;;7325654;32;20115;-55
2023/06/01 04:27:15;;;;;;;26.90;16.40;;;11.70;99.90;;;;;;7319850;32;20167;-55
2023/06/01 04:31:17;;;;;;;27.55;18.17;;;11.60;99.90;;;;;;7332719;32;21019;-54
2023/06/01 04:35:19;;;;;;;27.50;17.83;;;11.40;99.90;;;;;;7321580;32;20107;-55
2023/06/01 04:39:21;;;;;;;27.30;17.50;;;11.40;99.90;;;;;;7324467;32;20189;-54
2023/06/01 04:43:23;;;;;;;30.23;17.17;;;11.50;99.90;;;;;;7321905;32;20443;-54
2023/06/01 04:47:25;;;;;;;26.12;16.90;;;11.50;99.90;;;;;;7319083;32;20153;-56
2023/06/01 04:51:28;;;;;;;26.80;17.77;;;11.60;99.90;;;;;;7326600;32;20349;-56
2023/06/01 04:55:30;;;;;;;26.02;16.55;;;11.60;99.90;;;;;;7324170;32;20597;-56
2023/06/01 04:59:33;;;;;;;32.92;20.48;;;11.60;99.90;;;;;;7323018;32;20951;-56
2023/06/01 05:03:35;;;;;;;29.65;18.55;;;11.70;99.90;;;;;;7311796;32;20245;-56
2023/06/01 05:07:38;;;;;;;23.75;17.67;;;11.70;99.90;;;;;;7326578;32;20490;-57
2023/06/01 05:11:40;;;;;;;27.62;17.17;;;11.80;99.90;;;;;;7325216;32;20107;-56
2023/06/01 05:15:42;;;;;;;26.30;18.90;;;11.70;99.90;;;;;;7328659;32;20932;-56
2023/06/01 05:19:45;;;;;;;23.25;17.12;;;11.80;99.90;;;;;;7325584;32;20123;-56
2023/06/01 05:23:46;;;;;;;29.77;18.62;;;11.70;99.90;;;;;;7323935;32;20573;-56
2023/06/01 05:27:48;;;;;;;27.98;19.17;;;11.70;99.90;;;;;;7332588;32;20209;-56
2023/06/01 05:31:50;;;;;;;29.45;19.17;;;11.60;99.90;;;;;;7319232;32;20971;-56
2023/06/01 05:35:52;;;;;;;30.52;18.52;;;11.30;99.90;;;;;;7325167;32;20233;-56
2023/06/01 05:39:54;;;;;;;29.75;19.90;;;11.30;99.90;;;;;;7325654;32;20119;-56
2023/06/01 05:43:56;;;;;;;46.08;33.72;;;11.40;99.90;;;;;;7336225;32;20254;-56
2023/06/01 05:47:58;;;;;;;24.40;15.98;;;11.50;99.90;;;;;;7320016;32;20217;-56
2023/06/01 05:52:00;;;;;;;25.27;17.65;;;11.50;99.90;;;;;;7335284;32;20196;-55
2023/06/01 05:56:02;;;;;;;30.80;17.30;;;11.50;99.90;;;;;;7331546;32;20139;-56
2023/06/01 06:00:09;;;;;;;26.25;17.40;;;11.40;99.90;;;;;;7331923;32;20137;-57
2023/06/01 06:04:11;;;;;;;25.33;17.05;;;11.20;99.90;;;;;;7334358;32;20112;-56
2023/06/01 06:08:13;;;;;;;28.83;18.02;;;11.20;99.90;;;;;;7327783;32;20791;-57
2023/06/01 06:12:16;;;;;;;28.33;19.00;;;11.30;99.90;;;;;;7333322;32;20129;-56
2023/06/01 06:16:18;;;;;;;27.80;18.70;;;11.10;99.90;;;;;;7328694;32;20175;-56
2023/06/01 06:20:21;;;;;;;30.90;19.52;;;11.20;99.90;;;;;;7328012;32;20285;-57
2023/06/01 06:24:23;;;;;;;26.20;18.30;;;11.40;99.90;;;;;;7331447;32;20116;-56
2023/06/01 06:28:26;;;;;;;23.70;17.87;;;11.50;99.90;;;;;;7333446;32;20310;-56
2023/06/01 06:32:28;;;;;;;26.23;19.17;;;11.60;99.90;;;;;;7335922;32;20253;-56
2023/06/01 06:36:30;;;;;;;29.95;20.40;;;11.80;99.90;;;;;;7333895;32;20707;-56
2023/06/01 06:40:32;;;;;;;30.10;20.50;;;11.80;99.90;;;;;;7330023;32;20541;-56
2023/06/01 06:44:33;;;;;;;30.02;20.98;;;11.80;99.90;;;;;;7342565;32;20235;-57
2023/06/01 06:48:35;;;;;;;28.85;20.62;;;12.00;99.90;;;;;;7328996;32;20191;-56
2023/06/01 06:52:37;;;;;;;30.48;21.20;;;11.80;99.90;;;;;;7328524;32;20158;-56
2023/06/01 06:56:39;;;;;;;31.62;20.70;;;12.10;99.90;;;;;;7325246;32;20108;-56
2023/06/01 07:00:41;;;;;;;28.15;21.23;;;12.50;99.90;;;;;;7330506;32;20258;-55
2023/06/01 07:04:43;;;;;;;28.35;21.08;;;12.60;99.90;;;;;;7332292;32;20138;-56
2023/06/01 07:08:44;;;;;;;27.15;22.27;;;12.80;99.90;;;;;;7328736;32;20611;-56
2023/06/01 07:12:47;;;;;;;29.58;22.05;;;13.10;99.90;;;;;;7331382;32;20138;-56
2023/06/01 07:16:49;;;;;;;27.85;21.33;;;13.10;99.90;;;;;;7326998;32;20186;-56
2023/06/01 07:20:50;;;;;;;28.73;20.73;;;13.20;99.90;;;;;;7309990;32;20200;-56
2023/06/01 07:24:52;;;;;;;26.98;20.48;;;13.30;99.90;;;;;;7329618;32;20164;-57
2023/06/01 07:28:56;;;;;;;28.10;22.52;;;13.80;99.90;;;;;;7329694;32;20186;-57
2023/06/01 07:32:58;;;;;;;23.80;19.77;;;14.10;99.90;;;;;;7328605;32;20096;-56
2023/06/01 07:37:00;;;;;;;24.73;19.10;;;14.10;99.90;;;;;;7303372;32;20127;-56
2023/06/01 07:41:17;;;;;;;22.73;16.70;;;14.10;99.90;;;;;;7310940;32;20195;-56
2023/06/01 07:45:19;;;;;;;21.20;17.05;;;14.90;99.90;;;;;;7323253;32;20286;-56
2023/06/01 07:49:21;;;;;;;24.17;16.23;;;14.90;99.90;;;;;;7323487;32;20324;-56
2023/06/01 07:53:23;;;;;;;21.83;15.52;;;14.80;99.90;;;;;;7329185;32;20557;-56
2023/06/01 07:57:27;;;;;;;18.42;14.45;;;15.20;99.90;;;;;;7328936;32;20182;-56
2023/06/01 08:01:29;;;;;;;17.90;14.02;;;15.40;99.90;;;;;;7326497;32;20104;-56
2023/06/01 08:05:31;;;;;;;18.05;13.50;;;15.50;99.90;;;;;;7314019;32;20138;-57
2023/06/01 08:09:33;;;;;;;17.33;13.60;;;15.90;99.90;;;;;;7308762;32;20111;-57
2023/06/01 08:13:36;;;;;;;16.60;12.65;;;16.30;99.90;;;;;;7322739;32;20230;-57
2023/06/01 08:17:38;;;;;;;18.80;13.80;;;16.40;99.90;;;;;;7335310;32;20121;-58
2023/06/01 08:21:41;;;;;;;19.98;14.48;;;17.00;99.90;;;;;;7329377;32;20249;-57
2023/06/01 08:25:45;;;;;;;22.67;16.10;;;16.20;99.90;;;;;;7332034;32;20257;-58
2023/06/01 08:29:47;;;;;;;23.95;18.45;;;16.40;99.90;;;;;;7328751;32;20213;-58
2023/06/01 08:33:51;;;;;;;18.85;15.07;;;16.80;99.90;;;;;;7323081;32;20726;-57
2023/06/01 08:37:53;;;;;;;27.02;20.00;;;17.30;99.90;;;;;;7325360;32;20276;-57
2023/06/01 08:42:22;;;;;;;24.80;17.50;;;17.70;99.90;;;;;;7310830;32;20217;-58
2023/06/01 08:46:25;;;;;;;23.67;15.82;;;17.80;99.90;;;;;;7329510;32;20134;-58
2023/06/01 08:50:28;;;;;;;18.73;13.95;;;18.00;99.90;;;;;;7331658;32;20190;-58
2023/06/01 08:54:31;;;;;;;18.58;13.52;;;18.70;99.90;;;;;;7322764;32;20183;-61
2023/06/01 08:58:35;;;;;;;21.65;15.73;;;19.00;99.90;;;;;;7325989;32;20210;-57
2023/06/01 09:02:37;;;;;;;23.27;16.60;;;19.90;99.90;;;;;;7328319;32;20111;-58
2023/06/01 09:06:41;;;;;;;24.35;20.88;;;19.60;99.90;;;;;;7325760;32;20341;-57
2023/06/01 09:10:42;;;;;;;21.80;18.15;;;19.90;99.90;;;;;;7331546;32;20130;-57
2023/06/01 09:14:44;;;;;;;27.08;21.55;;;20.40;99.90;;;;;;7326985;32;20126;-58
2023/06/01 09:18:53;;;;;;;24.65;19.17;;;20.70;99.90;;;;;;7336706;32;20987;-57
2023/06/01 09:22:55;;;;;;;31.30;24.58;;;20.10;99.90;;;;;;7339681;32;20524;-58
2023/06/01 09:27:01;;;;;;;30.80;24.17;;;20.70;99.90;;;;;;7334605;32;20647;-58
2023/06/01 09:31:04;;;;;;;18.92;15.70;;;20.30;99.90;;;;;;7329814;32;20219;-57
2023/06/01 09:35:07;;;;;;;24.73;16.48;;;20.00;99.90;;;;;;7336135;32;20473;-58
2023/06/01 09:39:12;;;;;;;25.05;17.55;;;20.20;99.90;;;;;;7340775;32;20209;-57
2023/06/01 09:43:23;;;;;;;24.90;18.87;;;20.90;99.90;;;;;;7338059;32;20115;-56
2023/06/01 09:47:28;;;;;;;25.67;19.27;;;20.60;99.90;;;;;;7333295;32;20228;-58
2023/06/01 09:51:31;;;;;;;25.08;21.52;;;21.00;99.90;;;;;;7332524;32;20242;-57
2023/06/01 09:55:33;;;;;;;27.87;22.62;;;20.90;99.90;;;;;;7344073;32;20137;-58
2023/06/01 09:59:45;;;;;;;25.05;20.67;;;20.70;99.90;;;;;;7342239;32;20111;-58
2023/06/01 10:03:50;;;;;;;29.45;22.50;;;21.50;99.90;;;;;;7329943;32;20582;-57
2023/06/01 10:07:52;;;;;;;26.62;23.00;;;21.90;99.90;;;;;;7341286;32;20171;-56
2023/06/01 10:11:55;;;;;;;29.40;23.27;;;22.10;99.90;;;;;;7343734;32;20534;-58
2023/06/01 10:15:57;;;;;;;24.27;21.65;;;21.10;99.90;;;;;;7337272;32;20249;-58
2023/06/01 10:20:01;;;;;;;27.10;22.50;;;22.00;99.90;;;;;;7347282;32;20135;-57
2023/06/01 10:24:04;;;;;;;26.58;21.77;;;22.40;99.80;;;;;;7338162;32;20136;-59
2023/06/01 10:28:07;;;;;;;28.33;20.83;;;21.70;99.20;;;;;;7325062;32;20111;-57
2023/06/01 10:32:42;;;;;;;24.70;19.92;;;21.90;99.90;;;;;;7325000;32;20186;-58
2023/06/01 10:36:53;;;;;;;31.40;20.08;;;21.40;99.90;;;;;;7333113;32;20470;-58
2023/06/01 10:41:26;;;;;;;23.30;16.58;;;21.70;99.90;;;;;;7329424;32;20247;-58
2023/06/01 10:45:37;;;;;;;18.37;14.25;;;21.20;99.90;;;;;;7331032;32;20114;-58
2023/06/01 10:49:48;;;;;;;20.85;13.95;;;21.90;98.80;;;;;;7332587;32;20265;-57
2023/06/01 10:53:50;;;;;;;18.02;11.60;;;21.70;97.10;;;;;;7333135;32;20120;-57
2023/06/01 10:58:22;;;;;;;20.20;13.95;;;21.60;99.10;;;;;;7339346;32;20671;-58
2023/06/01 11:02:24;;;;;;;19.55;12.57;;;21.50;98.80;;;;;;7317852;32;20186;-58
2023/06/01 11:06:31;;;;;;;14.55;10.60;;;21.40;98.50;;;;;;7336071;32;20693;-57
2023/06/01 11:15:12;;;;;;;14.63;8.90;;;21.10;96.70;;;;;;7335225;32;20258;-58
2023/06/01 11:19:20;;;;;;;13.77;9.38;;;21.30;95.10;;;;;;7335589;32;20162;-58
2023/06/01 11:23:22;;;;;;;15.00;9.45;;;21.60;95.40;;;;;;7330750;32;20142;-57
2023/06/01 11:27:24;;;;;;;14.73;9.07;;;21.90;96.60;;;;;;7336919;32;20135;-58
2023/06/01 11:31:27;;;;;;;13.32;8.00;;;22.00;94.90;;;;;;7329028;32;20233;-57
2023/06/01 11:35:29;;;;;;;14.90;8.25;;;22.10;95.80;;;;;;7335069;32;20266;-58
2023/06/01 11:39:31;;;;;;;14.87;7.85;;;22.10;94.20;;;;;;7332202;32;22600;-58
2023/06/01 11:43:34;;;;;;;14.38;9.18;;;22.10;95.80;;;;;;7339534;32;20227;-57
2023/06/01 11:47:37;;;;;;;14.30;8.88;;;21.90;95.00;;;;;;7333662;32;20519;-58
2023/06/01 11:51:40;;;;;;;14.82;8.63;;;22.30;94.70;;;;;;7333931;32;20230;-58
2023/06/01 11:55:49;;;;;;;14.30;8.80;;;22.50;95.40;;;;;;7325767;32;20142;-58
2023/06/01 11:59:52;;;;;;;17.20;9.52;;;22.30;95.20;;;;;;7319171;32;20131;-57
2023/06/01 12:03:56;;;;;;;18.55;7.97;;;22.10;94.30;;;;;;7325801;32;20130;-58
2023/06/01 12:08:00;;;;;;;14.27;7.28;;;22.50;93.40;;;;;;7327557;32;20226;-57
2023/06/01 12:12:02;;;;;;;13.23;7.22;;;23.80;93.40;;;;;;7324998;32;20258;-57
2023/06/01 12:16:05;;;;;;;13.90;7.15;;;24.50;90.10;;;;;;7330243;32;20473;-57
2023/06/01 12:20:34;;;;;;;11.35;7.10;;;24.80;90.20;;;;;;7325248;32;20226;-57
2023/06/01 12:24:36;;;;;;;15.70;7.95;;;25.60;88.30;;;;;;7324993;32;20206;-58
2023/06/01 12:28:49;;;;;;;12.73;7.43;;;25.80;86.50;;;;;;7325247;32;20130;-58
2023/06/01 12:32:52;;;;;;;13.15;7.55;;;25.80;85.40;;;;;;7319238;32;20245;-57
2023/06/01 12:36:54;;;;;;;12.77;7.28;;;26.10;83.40;;;;;;7326273;32;20107;-58
2023/06/01 12:41:09;;;;;;;13.88;6.95;;;25.70;83.90;;;;;;7326792;32;20215;-58
2023/06/01 12:45:11;;;;;;;15.75;7.25;;;26.50;81.70;;;;;;7327315;32;20233;-57
2023/06/01 12:49:17;;;;;;;11.30;7.03;;;26.80;83.00;;;;;;7329531;32;20203;-57
2023/06/01 12:53:19;;;;;;;10.00;6.50;;;27.10;75.60;;;;;;7312757;32;20442;-57
2023/06/01 12:57:24;;;;;;;14.00;6.70;;;26.60;83.10;;;;;;7326804;32;20115;-59
2023/06/01 13:01:27;;;;;;;12.52;6.00;;;26.40;79.80;;;;;;7331578;32;20274;-59
2023/06/01 13:05:29;;;;;;;12.48;6.40;;;25.40;80.70;;;;;;7322271;32;20326;-58
2023/06/01 13:09:31;;;;;;;16.60;10.93;;;26.00;79.50;;;;;;7309992;32;20320;-58
2023/06/01 13:13:33;;;;;;;12.60;7.35;;;26.30;81.60;;;;;;7327399;32;20153;-58
2023/06/01 13:17:35;;;;;;;11.05;6.70;;;25.20;79.10;;;;;;7308529;32;20135;-58
2023/06/01 13:21:37;;;;;;;15.60;7.60;;;24.70;88.10;;;;;;7323692;32;20611;-58
2023/06/01 13:25:40;;;;;;;9.98;5.75;;;24.40;86.00;;;;;;7322390;32;20137;-57
2023/06/01 13:29:42;;;;;;;10.07;5.85;;;24.70;84.60;;;;;;7325374;32;20862;-58
2023/06/01 13:33:44;;;;;;;9.52;6.18;;;25.00;82.20;;;;;;7324415;32;20116;-58
2023/06/01 13:37:46;;;;;;;13.55;7.32;;;24.70;84.90;;;;;;7332072;32;20107;-59
2023/06/01 13:41:48;;;;;;;10.52;7.12;;;24.70;86.90;;;;;;7321991;32;20216;-58
2023/06/01 13:45:49;;;;;;;10.02;6.62;;;24.70;84.50;;;;;;7325745;32;20202;-62
2023/06/01 13:49:52;;;;;;;11.75;5.82;;;24.30;86.50;;;;;;7321833;32;20188;-57
2023/06/01 13:53:54;;;;;;;12.00;7.40;;;24.20;86.00;;;;;;7316042;32;20222;-57
2023/06/01 13:57:56;;;;;;;10.55;6.10;;;23.10;86.20;;;;;;7309538;32;20157;-57
2023/06/01 14:01:57;;;;;;;9.43;6.37;;;23.60;86.70;;;;;;7322234;32;20111;-58
2023/06/01 14:05:59;;;;;;;10.13;6.00;;;23.80;86.90;;;;;;7331931;32;20272;-58
2023/06/01 14:10:02;;;;;;;10.32;6.30;;;24.80;85.00;;;;;;7320960;32;20144;-60
2023/06/01 14:14:04;;;;;;;10.55;5.60;;;24.70;84.60;;;;;;7332499;32;20138;-58
2023/06/01 14:18:06;;;;;;;11.65;5.45;;;25.50;80.00;;;;;;7332259;32;20111;-58
2023/06/01 14:22:08;;;;;;;11.10;5.95;;;26.30;75.20;;;;;;7333510;32;20111;-58
2023/06/01 14:26:10;;;;;;;8.32;4.68;;;26.10;73.40;;;;;;7342018;32;20729;-57
2023/06/01 14:30:12;;;;;;;11.20;5.50;;;26.40;74.30;;;;;;7318236;32;20126;-57
2023/06/01 14:34:14;;;;;;;10.55;5.10;;;26.80;69.80;;;;;;7334698;32;20163;-58
2023/06/01 14:38:16;;;;;;;9.15;5.25;;;27.40;68.50;;;;;;7322235;32;20198;-58
2023/06/01 14:42:18;;;;;;;10.52;5.80;;;27.20;67.50;;;;;;7338695;32;20242;-58
2023/06/01 14:46:20;;;;;;;11.48;5.45;;;27.50;68.00;;;;;;7330507;32;20186;-57
2023/06/01 14:50:22;;;;;;;8.80;5.57;;;26.60;66.70;;;;;;7340308;32;20407;-58
2023/06/01 14:54:24;;;;;;;9.82;6.07;;;26.70;67.80;;;;;;7340364;32;20143;-58
2023/06/01 14:58:38;;;;;;;13.62;5.10;;;26.80;66.20;;;;;;7339103;32;20732;-58
2023/06/01 15:02:40;;;;;;;7.00;3.87;;;27.60;65.60;;;;;;7332053;32;20261;-57
2023/06/01 15:06:42;;;;;;;11.00;5.05;;;26.80;67.40;;;;;;7316403;32;20264;-58
2023/06/01 15:10:44;;;;;;;10.75;5.37;;;26.10;68.60;;;;;;7320949;32;20199;-58
2023/06/01 15:14:47;;;;;;;8.85;4.80;;;25.10;70.60;;;;;;7312953;32;20162;-58
2023/06/01 15:18:49;;;;;;;9.13;5.03;;;24.70;72.40;;;;;;7325090;32;20147;-58
2023/06/01 15:22:51;;;;;;;12.27;5.53;;;23.70;77.80;;;;;;7321788;32;20252;-57
2023/06/01 15:26:53;;;;;;;9.95;6.35;;;23.60;78.70;;;;;;7335045;32;20144;-58
2023/06/01 15:30:55;;;;;;;11.75;5.22;;;22.60;81.70;;;;;;7331827;32;20581;-56
2023/06/01 15:34:57;;;;;;;10.30;5.72;;;22.10;83.30;;;;;;7330321;32;20137;-59
2023/06/01 15:39:00;;;;;;;13.02;5.47;;;21.40;86.30;;;;;;7327381;32;20194;-57
2023/06/01 15:43:02;;;;;;;12.82;5.87;;;21.20;87.80;;;;;;7327643;32;20107;-57
2023/06/01 15:47:04;;;;;;;10.75;5.75;;;21.00;88.20;;;;;;7312765;32;20111;-57
2023/06/01 15:51:07;;;;;;;9.07;5.03;;;21.20;89.30;;;;;;7327154;32;20640;-57
2023/06/01 15:55:09;;;;;;;10.95;6.50;;;21.00;90.40;;;;;;7313006;32;20107;-57
2023/06/01 15:59:11;;;;;;;11.25;6.40;;;20.50;90.50;;;;;;7331906;32;20132;-58
2023/06/01 16:03:13;;;;;;;9.93;6.12;;;20.30;92.00;;;;;;7335577;32;20256;-57
2023/06/01 16:07:14;;;;;;;11.93;6.62;;;20.00;92.70;;;;;;7335441;32;20103;-57
2023/06/01 16:11:16;;;;;;;12.80;5.95;;;20.00;92.90;;;;;;7328013;32;20115;-57
2023/06/01 16:15:18;;;;;;;12.50;5.50;;;20.00;93.20;;;;;;7329558;32;20103;-57
2023/06/01 16:19:20;;;;;;;8.95;6.20;;;19.70;94.50;;;;;;7325707;32;20252;-56
2023/06/01 16:23:22;;;;;;;9.63;5.62;;;19.70;94.90;;;;;;7323956;32;20198;-57
2023/06/01 16:27:25;;;;;;;14.63;6.20;;;19.80;96.10;;;;;;7329056;32;20109;-57
2023/06/01 16:31:27;;;;;;;14.02;5.87;;;19.80;96.00;;;;;;7331213;32;20211;-57
2023/06/01 16:35:29;;;;;;;13.00;5.20;;;19.50;97.30;;;;;;7326249;32;20224;-57
2023/06/01 16:39:31;;;;;;;11.50;5.10;;;19.70;98.10;;;;;;7329687;32;20144;-56
2023/06/01 16:43:33;;;;;;;10.48;5.97;;;19.70;98.50;;;;;;7312444;32;20470;-57
2023/06/01 16:47:34;;;;;;;11.65;5.95;;;19.60;97.70;;;;;;7333249;32;20130;-57
2023/06/01 16:51:36;;;;;;;14.45;5.57;;;19.40;99.30;;;;;;7325500;32;20178;-58
2023/06/01 16:55:38;;;;;;;9.50;5.53;;;19.40;99.70;;;;;;7330658;32;20134;-57
2023/06/01 16:59:41;;;;;;;13.40;4.97;;;19.40;99.90;;;;;;7328429;32;20186;-57
2023/06/01 17:03:43;;;;;;;9.57;5.12;;;19.40;99.90;;;;;;7327902;32;20166;-57
2023/06/01 17:07:44;;;;;;;11.12;4.87;;;19.60;99.80;;;;;;7330089;32;20257;-57
2023/06/01 17:11:48;;;;;;;12.18;5.15;;;19.50;99.90;;;;;;7329330;32;20875;-57
2023/06/01 17:15:50;;;;;;;9.07;4.72;;;19.20;99.90;;;;;;7327214;32;20262;-57
2023/06/01 17:19:54;;;;;;;6.75;4.40;;;19.20;99.90;;;;;;7330447;32;20274;-58
2023/06/01 17:23:56;;;;;;;8.60;4.40;;;19.20;99.90;;;;;;7322634;32;20116;-57
2023/06/01 17:27:58;;;;;;;12.32;4.90;;;19.30;99.90;;;;;;7327374;32;20205;-57
2023/06/01 17:32:01;;;;;;;8.50;4.40;;;19.30;99.90;;;;;;7319599;32;20111;-58
2023/06/01 17:36:03;;;;;;;9.93;4.03;;;19.30;99.90;;;;;;7327317;32;20236;-57
2023/06/01 17:40:06;;;;;;;5.62;3.55;;;19.20;99.90;;;;;;7333784;32;20163;-57
2023/06/01 17:44:09;;;;;;;8.07;4.70;;;19.00;99.90;;;;;;7330498;32;20136;-57
2023/06/01 17:48:11;;;;;;;8.70;4.25;;;18.90;99.90;;;;;;7317834;32;20202;-57
2023/06/01 17:52:13;;;;;;;7.78;4.65;;;18.60;99.90;;;;;;7315522;32;20123;-59
2023/06/01 17:56:15;;;;;;;9.48;4.47;;;18.50;99.90;;;;;;7316925;32;20158;-58
2023/06/01 18:00:18;;;;;;;8.50;4.35;;;18.40;99.90;;;;;;7327742;32;20271;-58
2023/06/01 18:04:20;;;;;;;7.43;4.75;;;18.30;99.90;;;;;;7324347;32;20233;-58
2023/06/01 18:08:22;;;;;;;8.18;4.82;;;18.00;99.90;;;;;;7322483;32;20584;-57
2023/06/01 18:12:24;;;;;;;7.50;5.37;;;17.90;99.90;;;;;;7329092;32;20115;-58
2023/06/01 18:16:26;;;;;;;10.48;5.25;;;17.80;99.90;;;;;;7326602;32;20680;-58
2023/06/01 18:20:28;;;;;;;10.88;5.50;;;17.70;99.90;;;;;;7325019;32;20189;-58
2023/06/01 18:24:29;;;;;;;6.97;4.78;;;17.40;99.90;;;;;;7333877;32;20532;-58
2023/06/01 18:28:31;;;;;;;8.50;5.43;;;17.10;99.90;;;;;;7332179;32;20265;-57
2023/06/01 18:32:33;;;;;;;7.15;4.82;;;17.00;99.90;;;;;;7326944;32;20528;-57
2023/06/01 18:36:36;;;;;;;6.60;5.30;;;17.00;99.90;;;;;;7334002;32;20167;-58
2023/06/01 18:40:38;;;;;;;11.25;5.15;;;16.80;99.90;;;;;;7328435;32;20107;-57
2023/06/01 18:44:39;;;;;;;9.90;5.28;;;16.50;99.90;;;;;;7334446;32;20126;-58
2023/06/01 18:48:41;;;;;;;10.23;5.45;;;16.30;99.90;;;;;;7321612;32;20241;-57
2023/06/01 18:52:43;;;;;;;7.68;5.30;;;16.20;99.90;;;;;;7341762;32;20127;-57
2023/06/01 18:56:46;;;;;;;8.13;5.05;;;16.00;99.90;;;;;;7330201;32;20239;-57
2023/06/01 19:00:48;;;;;;;7.55;5.28;;;16.00;99.90;;;;;;7325249;32;20184;-57
2023/06/01 19:05:02;;;;;;;9.63;4.97;;;15.90;99.90;;;;;;7329683;32;20270;-57
2023/06/01 19:09:04;;;;;;;11.00;5.85;;;15.80;99.90;;;;;;7326502;32;20142;-57
2023/06/01 19:13:05;;;;;;;7.70;5.00;;;15.70;99.90;;;;;;7327957;32;20126;-57
2023/06/01 19:17:07;;;;;;;7.15;4.85;;;15.60;99.90;;;;;;7331904;32;20153;-57
2023/06/01 19:21:15;;;;;;;9.18;4.90;;;15.40;99.90;;;;;;7326957;32;20129;-57
2023/06/01 19:25:17;;;;;;;12.50;5.20;;;15.30;99.90;;;;;;7329464;32;20119;-57
2023/06/01 19:29:21;;;;;;;8.82;4.18;;;15.20;99.90;;;;;;7331071;32;20659;-57
2023/06/01 19:33:23;;;;;;;6.40;4.12;;;15.10;99.90;;;;;;7323569;32;20113;-57
2023/06/01 19:37:25;;;;;;;8.52;4.05;;;14.90;99.90;;;;;;7328690;32;20106;-57
2023/06/01 19:41:27;;;;;;;10.43;3.97;;;14.90;99.90;;;;;;7327457;32;20168;-57
2023/06/01 19:45:29;;;;;;;7.72;3.62;;;14.80;99.90;;;;;;7328637;32;20977;-57
2023/06/01 19:49:40;;;;;;;7.35;3.60;;;14.70;99.90;;;;;;7321408;32;20190;-56
2023/06/01 19:53:46;;;;;;;10.00;4.03;;;14.60;99.90;;;;;;7320428;32;20111;-56
2023/06/01 19:57:48;;;;;;;9.25;4.12;;;14.50;99.90;;;;;;7324349;32;20148;-56
2023/06/01 20:01:50;;;;;;;7.62;3.90;;;14.40;99.90;;;;;;7329456;32;20782;-56
2023/06/01 20:05:52;;;;;;;7.45;3.75;;;14.30;99.90;;;;;;7324229;32;20679;-56
2023/06/01 20:09:54;;;;;;;9.20;4.10;;;14.30;99.90;;;;;;7332989;32;20168;-56
2023/06/01 20:13:56;;;;;;;7.37;3.75;;;14.20;99.90;;;;;;7327763;32;20108;-56
2023/06/01 20:18:03;;;;;;;7.15;3.72;;;14.00;99.90;;;;;;7325463;32;20589;-55
2023/06/01 20:22:07;;;;;;;8.93;4.03;;;13.90;99.90;;;;;;7330254;32;20235;-55
2023/06/01 20:26:10;;;;;;;11.90;4.47;;;13.80;99.90;;;;;;7322516;32;20686;-55
2023/06/01 20:30:25;;;;;;;11.57;4.22;;;13.70;99.90;;;;;;7332540;32;20150;-54
2023/06/01 20:34:28;;;;;;;8.77;4.30;;;13.60;99.90;;;;;;7327662;32;20495;-57
2023/06/01 20:38:32;;;;;;;11.90;4.25;;;13.50;99.90;;;;;;7329977;32;20534;-58
2023/06/01 20:42:34;;;;;;;8.40;4.22;;;13.40;99.90;;;;;;7333175;32;20205;-54
2023/06/01 20:46:36;;;;;;;14.00;4.68;;;13.40;99.90;;;;;;7326879;32;20720;-56
2023/06/01 20:50:38;;;;;;;11.82;4.95;;;13.30;99.90;;;;;;7325140;32;20133;-54
2023/06/01 20:54:40;;;;;;;9.68;4.78;;;13.20;99.90;;;;;;7333325;32;20111;-55